createdAt,value
2018-05-16T00:00:35.143Z,94.65
2018-05-16T00:01:35.105Z,94.93
2018-05-16T00:02:35.090Z,94.93
2018-05-16T00:03:35.000Z,95.12
2018-05-16T00:04:34.963Z,94.74
2018-05-16T00:05:34.906Z,95.51
2018-05-16T00:06:34.855Z,94.56
2018-05-16T00:07:34.852Z,94.93
2018-05-16T00:08:34.763Z,95.12
2018-05-16T00:09:34.723Z,94.46
2018-05-16T00:10:34.664Z,94.65
2018-05-16T00:11:34.633Z,94.74
2018-05-16T00:12:34.607Z,95.12
2018-05-16T00:13:34.526Z,95.32
2018-05-16T00:14:34.519Z,95.51
2018-05-16T00:15:34.428Z,95.32
2018-05-16T00:16:34.394Z,95.32
2018-05-16T00:17:34.334Z,95.03
2018-05-16T00:18:34.283Z,95.32
2018-05-16T00:19:34.279Z,95.03
2018-05-16T00:20:34.189Z,94.84
2018-05-16T00:21:34.143Z,95.32
2018-05-16T00:22:34.092Z,94.93
2018-05-16T00:23:34.076Z,95.12
2018-05-16T00:24:33.998Z,95.41
2018-05-16T00:25:33.954Z,95.12
2018-05-16T00:26:33.908Z,95.12
2018-05-16T00:27:33.856Z,95.03
2018-05-16T00:28:33.845Z,95.51
2018-05-16T00:29:33.768Z,95.51
2018-05-16T00:30:33.710Z,95.51
2018-05-16T00:31:34.151Z,95.61
2018-05-16T00:32:33.618Z,94.36
2018-05-16T00:33:33.567Z,95.79
2018-05-16T00:34:33.524Z,95.51
2018-05-16T00:35:33.473Z,95.61
2018-05-16T00:36:33.465Z,95.70
2018-05-16T00:37:33.376Z,95.70
2018-05-16T00:38:33.332Z,95.98
2018-05-16T00:39:33.288Z,95.51
2018-05-16T00:40:33.236Z,95.22
2018-05-16T00:41:33.225Z,95.41
2018-05-16T00:42:33.176Z,95.70
2018-05-16T00:43:33.092Z,95.89
2018-05-16T00:44:33.043Z,95.22
2018-05-16T00:45:33.038Z,95.51
2018-05-16T00:46:32.984Z,95.98
2018-05-16T00:47:32.902Z,95.89
2018-05-16T00:48:32.851Z,95.51
2018-05-16T00:49:32.807Z,95.61
2018-05-16T00:50:32.807Z,96.17
2018-05-16T00:51:32.713Z,96.56
2018-05-16T00:52:32.670Z,96.56
2018-05-16T00:53:32.630Z,95.70
2018-05-16T00:54:32.566Z,95.70
2018-05-16T00:55:32.557Z,96.46
2018-05-16T00:56:32.470Z,97.13
2018-05-16T00:57:32.423Z,96.94
2018-05-16T00:58:32.406Z,97.03
2018-05-16T00:59:32.328Z,96.75
2018-05-16T01:00:32.282Z,96.56
2018-05-16T01:01:32.231Z,96.17
2018-05-16T01:02:32.215Z,97.22
2018-05-16T01:03:32.141Z,96.75
2018-05-16T01:04:32.088Z,96.70
2018-05-16T01:05:32.084Z,97.17
2018-05-16T01:06:32.037Z,97.03
2018-05-16T01:07:31.962Z,96.27
2018-05-16T01:08:31.901Z,96.70
2018-05-16T01:09:31.851Z,98.27
2018-05-16T01:10:31.817Z,97.37
2018-05-16T01:11:31.794Z,97.46
2018-05-16T01:12:31.740Z,97.46
2018-05-16T01:13:31.667Z,97.08
2018-05-16T01:14:31.613Z,97.08
2018-05-16T01:15:31.561Z,97.08
2018-05-16T01:16:31.558Z,97.08
2018-05-16T01:17:31.476Z,96.98
2018-05-16T01:18:31.421Z,96.89
2018-05-16T01:19:31.372Z,97.08
2018-05-16T01:20:31.328Z,97.27
2018-05-16T01:21:31.308Z,97.17
2018-05-16T01:22:31.229Z,97.17
2018-05-16T01:23:31.187Z,97.37
2018-05-16T01:24:31.133Z,97.37
2018-05-16T01:25:31.116Z,97.46
2018-05-16T01:26:31.036Z,97.85
2018-05-16T01:27:30.988Z,97.17
2018-05-16T01:28:30.974Z,97.37
2018-05-16T01:29:30.890Z,97.75
2018-05-16T01:30:30.849Z,97.27
2018-05-16T01:31:30.799Z,97.66
2018-05-16T01:32:30.749Z,97.46
2018-05-16T01:33:30.772Z,97.46
2018-05-16T01:34:30.652Z,97.27
2018-05-16T01:35:30.607Z,97.46
2018-05-16T01:36:30.559Z,97.56
2018-05-16T01:37:30.520Z,97.94
2018-05-16T01:38:30.495Z,97.94
2018-05-16T01:39:30.445Z,97.75
2018-05-16T01:40:30.372Z,97.85
2018-05-16T01:41:30.325Z,97.56
2018-05-16T01:42:30.271Z,97.94
2018-05-16T01:43:30.254Z,97.75
2018-05-16T01:44:30.221Z,97.46
2018-05-16T01:45:30.129Z,97.66
2018-05-16T01:46:30.079Z,98.13
2018-05-16T01:47:30.034Z,98.32
2018-05-16T01:48:29.983Z,98.32
2018-05-16T01:49:29.972Z,98.32
2018-05-16T01:50:29.888Z,98.13
2018-05-16T01:51:29.841Z,98.03
2018-05-16T01:52:29.791Z,98.51
2018-05-16T01:53:29.781Z,97.94
2018-05-16T01:54:29.710Z,98.42
2018-05-16T01:55:29.652Z,98.42
2018-05-16T01:56:29.598Z,98.13
2018-05-16T01:57:29.588Z,98.42
2018-05-16T01:58:29.516Z,98.13
2018-05-16T01:59:29.456Z,98.03
2018-05-16T02:00:29.408Z,97.94
2018-05-16T02:01:29.395Z,97.85
2018-05-16T02:02:29.312Z,97.85
2018-05-16T02:03:29.264Z,98.22
2018-05-16T02:04:29.221Z,98.42
2018-05-16T02:05:29.166Z,98.42
2018-05-16T02:06:29.151Z,98.22
2018-05-16T02:07:29.070Z,98.32
2018-05-16T02:08:29.023Z,98.13
2018-05-16T02:09:28.978Z,98.32
2018-05-16T02:10:28.953Z,98.32
2018-05-16T02:11:28.879Z,97.94
2018-05-16T02:12:28.866Z,98.22
2018-05-16T02:13:28.784Z,98.03
2018-05-16T02:14:28.771Z,98.32
2018-05-16T02:15:28.736Z,98.42
2018-05-16T02:16:28.641Z,98.32
2018-05-16T02:17:28.597Z,98.32
2018-05-16T02:18:28.544Z,98.51
2018-05-16T02:19:28.532Z,98.32
2018-05-16T02:20:28.449Z,98.22
2018-05-16T02:21:28.453Z,98.51
2018-05-16T02:22:28.353Z,98.32
2018-05-16T02:23:28.305Z,97.94
2018-05-16T02:24:28.306Z,98.03
2018-05-16T02:25:28.225Z,98.03
2018-05-16T02:26:28.161Z,98.42
2018-05-16T02:27:28.117Z,98.42
2018-05-16T02:28:28.067Z,98.42
2018-05-16T02:29:28.069Z,98.32
2018-05-16T02:30:27.972Z,98.42
2018-05-16T02:31:27.923Z,98.32
2018-05-16T02:32:27.881Z,98.51
2018-05-16T02:33:27.825Z,97.94
2018-05-16T02:34:27.821Z,98.03
2018-05-16T02:35:27.730Z,98.03
2018-05-16T02:36:27.686Z,97.94
2018-05-16T02:37:27.733Z,97.94
2018-05-16T02:38:27.584Z,98.22
2018-05-16T02:39:27.569Z,97.85
2018-05-16T02:40:27.510Z,98.03
2018-05-16T02:41:27.444Z,98.22
2018-05-16T02:42:27.397Z,98.22
2018-05-16T02:43:27.348Z,97.85
2018-05-16T02:44:27.349Z,97.85
2018-05-16T02:45:27.251Z,97.94
2018-05-16T02:46:27.201Z,98.13
2018-05-16T02:47:27.270Z,98.03
2018-05-16T02:48:27.106Z,98.03
2018-05-16T02:49:27.096Z,98.03
2018-05-16T02:50:27.042Z,97.85
2018-05-16T02:51:27.003Z,97.66
2018-05-16T02:52:26.914Z,97.85
2018-05-16T02:53:26.863Z,97.75
2018-05-16T02:54:26.909Z,97.94
2018-05-16T02:55:26.770Z,97.75
2018-05-16T02:56:26.755Z,97.94
2018-05-16T02:57:26.678Z,97.85
2018-05-16T02:58:26.665Z,98.32
2018-05-16T02:59:26.587Z,98.03
2018-05-16T03:00:26.533Z,98.42
2018-05-16T03:01:26.491Z,98.51
2018-05-16T03:02:26.434Z,98.13
2018-05-16T03:03:26.438Z,98.32
2018-05-16T03:04:26.345Z,98.03
2018-05-16T03:05:26.289Z,97.75
2018-05-16T03:06:26.246Z,97.56
2018-05-16T03:07:26.195Z,97.85
2018-05-16T03:08:26.194Z,97.85
2018-05-16T03:09:26.098Z,97.56
2018-05-16T03:10:26.049Z,97.85
2018-05-16T03:11:26.010Z,97.27
2018-05-16T03:12:25.957Z,97.46
2018-05-16T03:13:25.941Z,97.37
2018-05-16T03:14:25.894Z,97.37
2018-05-16T03:15:25.809Z,97.66
2018-05-16T03:16:25.794Z,97.37
2018-05-16T03:17:25.713Z,97.27
2018-05-16T03:18:25.668Z,98.03
2018-05-16T03:19:25.631Z,97.94
2018-05-16T03:20:25.571Z,96.89
2018-05-16T03:21:25.557Z,97.46
2018-05-16T03:22:25.477Z,97.46
2018-05-16T03:23:25.427Z,98.13
2018-05-16T03:24:25.376Z,97.94
2018-05-16T03:25:25.333Z,97.75
2018-05-16T03:26:25.324Z,98.03
2018-05-16T03:27:25.238Z,98.13
2018-05-16T03:28:25.191Z,98.32
2018-05-16T03:29:25.141Z,98.51
2018-05-16T03:30:25.091Z,98.42
2018-05-16T03:31:25.082Z,98.13
2018-05-16T03:32:24.996Z,99.08
2018-05-16T03:33:24.946Z,98.70
2018-05-16T03:34:24.899Z,98.80
2018-05-16T03:35:24.850Z,98.99
2018-05-16T03:36:24.838Z,98.80
2018-05-16T03:37:24.754Z,98.80
2018-05-16T03:38:24.737Z,98.90
2018-05-16T03:39:24.659Z,98.99
2018-05-16T03:40:24.647Z,98.80
2018-05-16T03:41:24.563Z,98.61
2018-05-16T03:42:24.517Z,98.61
2018-05-16T03:43:24.507Z,98.70
2018-05-16T03:44:24.422Z,98.80
2018-05-16T03:45:24.371Z,98.51
2018-05-16T03:46:24.321Z,98.80
2018-05-16T03:47:24.310Z,98.32
2018-05-16T03:48:24.231Z,98.42
2018-05-16T03:49:24.218Z,97.94
2018-05-16T03:50:24.131Z,98.22
2018-05-16T03:51:24.090Z,98.42
2018-05-16T03:52:24.035Z,98.51
2018-05-16T03:53:23.985Z,98.22
2018-05-16T03:54:23.977Z,98.32
2018-05-16T03:55:23.892Z,98.32
2018-05-16T03:56:23.844Z,98.51
2018-05-16T03:57:23.829Z,98.32
2018-05-16T03:58:23.750Z,98.22
2018-05-16T03:59:23.701Z,98.22
2018-05-16T04:00:23.679Z,98.13
2018-05-16T04:01:23.647Z,98.13
2018-05-16T04:02:23.577Z,98.03
2018-05-16T04:03:23.506Z,98.03
2018-05-16T04:04:23.460Z,98.32
2018-05-16T04:05:23.409Z,98.51
2018-05-16T04:06:23.399Z,98.22
2018-05-16T04:07:23.313Z,98.42
2018-05-16T04:08:23.270Z,98.51
2018-05-16T04:09:23.215Z,98.32
2018-05-16T04:10:23.169Z,98.32
2018-05-16T04:11:23.162Z,98.32
2018-05-16T04:12:23.073Z,98.13
2018-05-16T04:13:23.027Z,98.51
2018-05-16T04:14:22.982Z,97.85
2018-05-16T04:15:22.925Z,98.03
2018-05-16T04:16:22.918Z,97.66
2018-05-16T04:17:22.866Z,98.32
2018-05-16T04:18:22.784Z,98.03
2018-05-16T04:19:22.739Z,98.13
2018-05-16T04:20:22.688Z,98.32
2018-05-16T04:21:22.652Z,97.94
2018-05-16T04:22:22.627Z,97.94
2018-05-16T04:23:22.544Z,97.94
2018-05-16T04:24:22.496Z,97.75
2018-05-16T04:25:22.466Z,97.85
2018-05-16T04:26:22.452Z,97.85
2018-05-16T04:27:22.354Z,97.66
2018-05-16T04:28:22.304Z,97.75
2018-05-16T04:29:22.262Z,97.75
2018-05-16T04:30:22.206Z,97.85
2018-05-16T04:31:22.201Z,97.37
2018-05-16T04:32:22.112Z,97.85
2018-05-16T04:33:22.097Z,97.66
2018-05-16T04:34:22.023Z,97.46
2018-05-16T04:35:21.970Z,97.17
2018-05-16T04:36:21.925Z,97.37
2018-05-16T04:37:21.904Z,97.17
2018-05-16T04:38:21.822Z,98.32
2018-05-16T04:39:21.776Z,98.51
2018-05-16T04:40:21.727Z,97.94
2018-05-16T04:41:21.685Z,98.03
2018-05-16T04:42:21.668Z,97.66
2018-05-16T04:43:21.620Z,98.13
2018-05-16T04:44:21.544Z,98.13
2018-05-16T04:45:21.488Z,98.22
2018-05-16T04:46:21.483Z,97.85
2018-05-16T04:47:21.390Z,97.94
2018-05-16T04:48:21.343Z,97.85
2018-05-16T04:49:21.298Z,97.94
2018-05-16T04:50:21.247Z,98.13
2018-05-16T04:51:21.237Z,98.32
2018-05-16T04:52:21.157Z,98.42
2018-05-16T04:53:21.150Z,98.42
2018-05-16T04:54:21.100Z,98.22
2018-05-16T04:55:21.009Z,98.27
2018-05-16T04:56:20.965Z,98.99
2018-05-16T04:57:20.912Z,98.90
2018-05-16T04:58:20.872Z,98.90
2018-05-16T04:59:20.850Z,98.32
2018-05-16T05:00:20.771Z,98.32
2018-05-16T05:01:20.721Z,98.70
2018-05-16T05:02:20.713Z,98.22
2018-05-16T05:03:20.622Z,98.42
2018-05-16T05:04:20.575Z,98.70
2018-05-16T05:05:20.528Z,98.42
2018-05-16T05:06:20.487Z,98.22
2018-05-16T05:07:20.472Z,98.70
2018-05-16T05:08:20.399Z,98.70
2018-05-16T05:09:20.337Z,98.80
2018-05-16T05:10:20.286Z,99.18
2018-05-16T05:11:20.240Z,98.99
2018-05-16T05:12:20.234Z,98.61
2018-05-16T05:13:20.147Z,98.80
2018-05-16T05:14:20.099Z,98.80
2018-05-16T05:15:20.048Z,98.61
2018-05-16T05:16:20.005Z,98.99
2018-05-16T05:17:19.988Z,99.18
2018-05-16T05:18:20.010Z,98.80
2018-05-16T05:19:19.856Z,98.80
2018-05-16T05:20:19.806Z,98.80
2018-05-16T05:21:19.794Z,99.08
2018-05-16T05:22:19.752Z,98.80
2018-05-16T05:23:19.673Z,98.61
2018-05-16T05:24:19.620Z,99.18
2018-05-16T05:25:19.573Z,99.18
2018-05-16T05:26:19.523Z,98.90
2018-05-16T05:27:19.503Z,98.99
2018-05-16T05:28:19.425Z,99.85
2018-05-16T05:29:19.379Z,99.27
2018-05-16T05:30:19.393Z,98.80
2018-05-16T05:31:19.282Z,98.99
2018-05-16T05:32:19.264Z,99.18
2018-05-16T05:33:19.230Z,99.56
2018-05-16T05:34:19.136Z,99.37
2018-05-16T05:35:19.090Z,98.70
2018-05-16T05:36:19.042Z,98.90
2018-05-16T05:37:18.995Z,99.23
2018-05-16T05:38:18.995Z,99.18
2018-05-16T05:39:18.895Z,98.80
2018-05-16T05:40:18.849Z,98.61
2018-05-16T05:41:18.801Z,99.46
2018-05-16T05:42:18.755Z,98.66
2018-05-16T05:43:18.750Z,99.71
2018-05-16T05:44:18.704Z,98.94
2018-05-16T05:45:18.607Z,98.85
2018-05-16T05:46:18.562Z,98.75
2018-05-16T05:47:18.513Z,99.04
2018-05-16T05:48:18.469Z,98.75
2018-05-16T05:49:18.521Z,98.94
2018-05-16T05:50:18.369Z,98.85
2018-05-16T05:51:18.355Z,98.66
2018-05-16T05:52:18.273Z,98.75
2018-05-16T05:53:18.230Z,98.75
2018-05-16T05:54:18.178Z,98.75
2018-05-16T05:55:18.162Z,98.75
2018-05-16T05:56:18.082Z,99.04
2018-05-16T05:57:18.065Z,99.13
2018-05-16T05:58:17.985Z,98.37
2018-05-16T05:59:17.938Z,98.37
2018-05-16T06:00:17.924Z,98.18
2018-05-16T06:01:17.842Z,98.27
2018-05-16T06:02:17.793Z,98.52
2018-05-16T06:03:17.754Z,98.71
2018-05-16T06:04:17.697Z,97.94
2018-05-16T06:05:17.766Z,97.94
2018-05-16T06:06:17.606Z,97.94
2018-05-16T06:07:17.553Z,98.13
2018-05-16T06:08:17.512Z,98.32
2018-05-16T06:09:17.462Z,98.23
2018-05-16T06:10:17.443Z,97.85
2018-05-16T06:11:17.363Z,97.85
2018-05-16T06:12:17.318Z,97.94
2018-05-16T06:13:17.267Z,97.66
2018-05-16T06:14:17.220Z,97.75
2018-05-16T06:15:17.210Z,97.99
2018-05-16T06:16:17.126Z,98.28
2018-05-16T06:17:17.102Z,97.80
2018-05-16T06:18:17.040Z,97.42
2018-05-16T06:19:16.986Z,96.84
2018-05-16T06:20:16.967Z,96.46
2018-05-16T06:21:16.895Z,96.37
2018-05-16T06:22:16.840Z,95.98
2018-05-16T06:23:16.828Z,96.03
2018-05-16T06:24:16.747Z,96.03
2018-05-16T06:25:16.710Z,94.74
2018-05-16T06:26:16.652Z,94.70
2018-05-16T06:27:16.768Z,94.89
2018-05-16T06:28:16.618Z,95.07
2018-05-16T06:29:16.512Z,94.60
2018-05-16T06:30:16.464Z,94.12
2018-05-16T06:31:16.416Z,94.60
2018-05-16T06:32:16.373Z,94.41
2018-05-16T06:33:16.363Z,94.51
2018-05-16T06:34:16.273Z,93.74
2018-05-16T06:35:16.228Z,92.97
2018-05-16T06:36:16.188Z,93.07
2018-05-16T06:37:16.142Z,92.21
2018-05-16T06:38:16.120Z,92.40
2018-05-16T06:39:16.113Z,92.88
2018-05-16T06:40:15.994Z,92.97
2018-05-16T06:41:15.952Z,92.69
2018-05-16T06:42:15.931Z,92.69
2018-05-16T06:43:15.853Z,91.54
2018-05-16T06:44:15.811Z,91.16
2018-05-16T06:45:15.817Z,91.93
2018-05-16T06:46:15.736Z,92.02
2018-05-16T06:47:15.667Z,92.69
2018-05-16T06:48:15.617Z,92.97
2018-05-16T06:49:15.647Z,92.97
2018-05-16T06:50:15.589Z,92.88
2018-05-16T06:51:15.482Z,91.93
2018-05-16T06:52:15.431Z,91.45
2018-05-16T06:53:15.388Z,91.35
2018-05-16T06:54:15.381Z,91.54
2018-05-16T06:55:15.293Z,91.64
2018-05-16T06:56:15.244Z,91.93
2018-05-16T06:57:15.199Z,92.02
2018-05-16T06:58:15.150Z,92.30
2018-05-16T06:59:15.136Z,92.69
2018-05-16T07:00:15.099Z,92.50
2018-05-16T07:01:15.018Z,92.25
2018-05-16T07:02:14.970Z,91.93
2018-05-16T07:03:14.923Z,92.35
2018-05-16T07:04:14.874Z,92.07
2018-05-16T07:05:14.858Z,92.40
2018-05-16T07:06:14.789Z,92.83
2018-05-16T07:07:14.747Z,92.93
2018-05-16T07:08:14.684Z,92.74
2018-05-16T07:09:14.645Z,93.02
2018-05-16T07:10:14.624Z,92.35
2018-05-16T07:11:14.548Z,92.07
2018-05-16T07:12:14.497Z,92.74
2018-05-16T07:13:14.485Z,92.25
2018-05-16T07:14:14.403Z,91.68
2018-05-16T07:15:14.392Z,91.49
2018-05-16T07:16:14.316Z,91.49
2018-05-16T07:17:14.276Z,91.44
2018-05-16T07:18:14.253Z,90.39
2018-05-16T07:19:14.170Z,90.39
2018-05-16T07:20:14.128Z,90.10
2018-05-16T07:21:14.080Z,90.10
2018-05-16T07:22:14.032Z,90.05
2018-05-16T07:23:14.019Z,89.76
2018-05-16T07:24:13.982Z,89.19
2018-05-16T07:25:13.895Z,89.09
2018-05-16T07:26:13.849Z,89.38
2018-05-16T07:27:13.801Z,89.86
2018-05-16T07:28:13.800Z,90.24
2018-05-16T07:29:13.742Z,90.05
2018-05-16T07:30:13.664Z,89.95
2018-05-16T07:31:13.660Z,89.23
2018-05-16T07:32:13.573Z,87.90
2018-05-16T07:33:13.526Z,87.61
2018-05-16T07:34:13.479Z,88.76
2018-05-16T07:35:13.437Z,88.76
2018-05-16T07:36:13.421Z,88.85
2018-05-16T07:37:13.344Z,89.43
2018-05-16T07:38:13.300Z,89.04
2018-05-16T07:39:13.285Z,87.99
2018-05-16T07:40:13.343Z,87.90
2018-05-16T07:41:13.263Z,87.84
2018-05-16T07:42:13.120Z,87.65
2018-05-16T07:43:13.071Z,87.55
2018-05-16T07:44:13.028Z,86.50
2018-05-16T07:45:13.014Z,87.17
2018-05-16T07:46:12.969Z,85.83
2018-05-16T07:47:13.070Z,85.41
2018-05-16T07:48:12.846Z,86.02
2018-05-16T07:49:12.804Z,85.21
2018-05-16T07:50:12.766Z,85.41
2018-05-16T07:51:12.823Z,85.64
2018-05-16T07:52:12.699Z,85.83
2018-05-16T07:53:12.620Z,85.74
2018-05-16T07:54:12.680Z,85.83
2018-05-16T07:55:12.526Z,85.35
2018-05-16T07:56:12.483Z,85.12
2018-05-16T07:57:12.439Z,85.16
2018-05-16T07:58:12.430Z,85.45
2018-05-16T07:59:12.350Z,84.30
2018-05-16T08:00:12.345Z,84.78
2018-05-16T08:01:12.259Z,85.64
2018-05-16T08:02:12.217Z,84.01
2018-05-16T08:03:12.271Z,84.78
2018-05-16T08:04:12.135Z,85.16
2018-05-16T08:05:12.127Z,84.97
2018-05-16T08:06:12.034Z,84.78
2018-05-16T08:07:11.993Z,83.92
2018-05-16T08:08:11.943Z,83.67
2018-05-16T08:09:11.900Z,83.38
2018-05-16T08:10:11.897Z,83.19
2018-05-16T08:11:11.807Z,83.09
2018-05-16T08:12:11.769Z,83.29
2018-05-16T08:13:11.721Z,82.90
2018-05-16T08:14:11.688Z,82.90
2018-05-16T08:15:11.676Z,83.09
2018-05-16T08:16:11.592Z,82.85
2018-05-16T08:17:11.541Z,83.61
2018-05-16T08:18:11.496Z,83.52
2018-05-16T08:19:11.456Z,83.04
2018-05-16T08:20:11.439Z,82.56
2018-05-16T08:21:11.400Z,82.75
2018-05-16T08:22:11.317Z,81.70
2018-05-16T08:23:11.277Z,81.02
2018-05-16T08:24:11.260Z,81.51
2018-05-16T08:25:11.185Z,81.79
2018-05-16T08:26:11.139Z,81.51
2018-05-16T08:27:11.097Z,80.93
2018-05-16T08:28:11.101Z,79.78
2018-05-16T08:29:11.007Z,79.88
2018-05-16T08:30:10.972Z,79.59
2018-05-16T08:31:10.958Z,79.55
2018-05-16T08:32:10.877Z,78.59
2018-05-16T08:33:10.866Z,78.11
2018-05-16T08:34:10.787Z,78.30
2018-05-16T08:35:10.742Z,78.72
2018-05-16T08:36:10.697Z,78.25
2018-05-16T08:37:10.653Z,78.25
2018-05-16T08:38:10.643Z,77.95
2018-05-16T08:39:10.563Z,78.15
2018-05-16T08:40:10.559Z,78.15
2018-05-16T08:41:10.473Z,78.00
2018-05-16T08:42:10.430Z,78.09
2018-05-16T08:43:10.383Z,78.00
2018-05-16T08:44:10.375Z,78.47
2018-05-16T08:45:10.339Z,78.09
2018-05-16T08:46:10.254Z,79.24
2018-05-16T08:47:10.214Z,79.05
2018-05-16T08:48:10.163Z,78.19
2018-05-16T08:49:10.121Z,77.90
2018-05-16T08:50:10.115Z,79.30
2018-05-16T08:51:10.031Z,79.01
2018-05-16T08:52:09.988Z,79.39
2018-05-16T08:53:09.945Z,78.72
2018-05-16T08:54:09.900Z,78.15
2018-05-16T08:55:09.893Z,78.34
2018-05-16T08:56:09.819Z,77.95
2018-05-16T08:57:09.777Z,77.86
2018-05-16T08:58:09.721Z,78.92
2018-05-16T08:59:09.678Z,78.25
2018-05-16T09:00:09.671Z,78.15
2018-05-16T09:01:09.684Z,78.44
2018-05-16T09:02:09.545Z,78.92
2018-05-16T09:03:09.516Z,79.78
2018-05-16T09:04:09.493Z,79.68
2018-05-16T09:05:09.450Z,78.92
2018-05-16T09:06:09.368Z,78.72
2018-05-16T09:07:09.329Z,79.11
2018-05-16T09:08:09.279Z,79.88
2018-05-16T09:09:09.237Z,80.11
2018-05-16T09:10:09.229Z,80.11
2018-05-16T09:11:09.162Z,80.11
2018-05-16T09:12:09.106Z,79.63
2018-05-16T09:13:09.064Z,78.77
2018-05-16T09:14:09.022Z,78.96
2018-05-16T09:15:09.012Z,79.01
2018-05-16T09:16:08.928Z,79.49
2018-05-16T09:17:08.974Z,79.97
2018-05-16T09:18:08.840Z,80.16
2018-05-16T09:19:08.807Z,79.39
2018-05-16T09:20:08.802Z,79.91
2018-05-16T09:21:08.719Z,80.49
2018-05-16T09:22:08.668Z,79.67
2018-05-16T09:23:08.628Z,80.15
2018-05-16T09:24:08.580Z,78.90
2018-05-16T09:25:08.654Z,77.59
2018-05-16T09:26:08.488Z,76.39
2018-05-16T09:27:08.477Z,76.67
2018-05-16T09:28:08.401Z,77.25
2018-05-16T09:29:08.360Z,76.96
2018-05-16T09:30:08.313Z,76.48
2018-05-16T09:31:08.301Z,77.21
2018-05-16T09:32:08.274Z,77.21
2018-05-16T09:33:08.186Z,78.23
2018-05-16T09:34:08.140Z,77.84
2018-05-16T09:35:08.097Z,77.84
2018-05-16T09:36:08.053Z,77.75
2018-05-16T09:37:08.045Z,77.94
2018-05-16T09:38:08.010Z,77.65
2018-05-16T09:39:07.925Z,78.32
2018-05-16T09:40:07.879Z,78.90
2018-05-16T09:41:07.844Z,78.23
2018-05-16T09:42:07.821Z,77.75
2018-05-16T09:43:07.792Z,76.64
2018-05-16T09:44:07.706Z,76.50
2018-05-16T09:45:07.671Z,76.82
2018-05-16T09:46:07.622Z,76.25
2018-05-16T09:47:07.581Z,76.15
2018-05-16T09:48:07.589Z,76.25
2018-05-16T09:49:07.493Z,76.15
2018-05-16T09:50:07.444Z,76.40
2018-05-16T09:51:07.404Z,76.79
2018-05-16T09:52:07.360Z,77.56
2018-05-16T09:53:07.347Z,76.98
2018-05-16T09:54:07.286Z,76.88
2018-05-16T09:55:07.231Z,77.46
2018-05-16T09:56:07.223Z,77.08
2018-05-16T09:57:07.143Z,76.69
2018-05-16T09:58:07.110Z,77.46
2018-05-16T09:59:07.098Z,77.42
2018-05-16T10:00:07.017Z,77.23
2018-05-16T10:01:07.030Z,77.42
2018-05-16T10:02:06.934Z,76.27
2018-05-16T10:03:06.881Z,75.70
2018-05-16T10:04:06.845Z,75.21
2018-05-16T10:05:06.801Z,74.89
2018-05-16T10:06:06.784Z,75.18
2018-05-16T10:07:06.716Z,76.62
2018-05-16T10:08:06.665Z,77.38
2018-05-16T10:09:06.625Z,77.76
2018-05-16T10:10:06.578Z,78.15
2018-05-16T10:11:06.575Z,78.34
2018-05-16T10:12:06.531Z,78.28
2018-05-16T10:13:06.449Z,77.76
2018-05-16T10:14:06.402Z,78.25
2018-05-16T10:15:06.412Z,78.53
2018-05-16T10:16:06.318Z,79.01
2018-05-16T10:17:06.335Z,78.34
2018-05-16T10:18:06.229Z,77.95
2018-05-16T10:19:06.183Z,78.92
2018-05-16T10:20:06.207Z,78.34
2018-05-16T10:21:06.127Z,79.21
2018-05-16T10:22:06.083Z,79.01
2018-05-16T10:23:06.009Z,78.34
2018-05-16T10:24:05.964Z,78.25
2018-05-16T10:25:05.923Z,78.25
2018-05-16T10:26:05.915Z,79.21
2018-05-16T10:27:05.830Z,79.01
2018-05-16T10:28:05.785Z,77.86
2018-05-16T10:29:05.745Z,78.28
2018-05-16T10:30:05.699Z,77.46
2018-05-16T10:31:05.689Z,76.25
2018-05-16T10:32:05.643Z,76.86
2018-05-16T10:33:05.571Z,75.23
2018-05-16T10:34:05.530Z,75.37
2018-05-16T10:35:05.483Z,73.44
2018-05-16T10:36:05.445Z,75.31
2018-05-16T10:37:05.438Z,73.67
2018-05-16T10:38:05.356Z,73.77
2018-05-16T10:39:05.311Z,74.05
2018-05-16T10:40:05.264Z,71.75
2018-05-16T10:41:05.231Z,71.08
2018-05-16T10:42:05.212Z,70.84
2018-05-16T10:43:05.136Z,70.94
2018-05-16T10:44:05.129Z,70.37
2018-05-16T10:45:05.056Z,71.71
2018-05-16T10:46:05.008Z,71.77
2018-05-16T10:47:04.993Z,72.06
2018-05-16T10:48:04.919Z,71.16
2018-05-16T10:49:04.912Z,71.93
2018-05-16T10:50:04.835Z,71.83
2018-05-16T10:51:04.795Z,72.41
2018-05-16T10:52:04.759Z,72.31
2018-05-16T10:53:04.743Z,72.47
2018-05-16T10:54:04.660Z,73.56
2018-05-16T10:55:04.620Z,74.10
2018-05-16T10:56:04.575Z,74.29
2018-05-16T10:57:04.532Z,74.10
2018-05-16T10:58:04.532Z,74.19
2018-05-16T10:59:04.443Z,74.77
2018-05-16T11:00:04.449Z,75.15
2018-05-16T11:01:04.360Z,74.13
2018-05-16T11:02:04.317Z,73.94
2018-05-16T11:03:04.273Z,74.23
2018-05-16T11:04:04.237Z,73.60
2018-05-16T11:05:04.239Z,73.02
2018-05-16T11:06:04.183Z,73.54
2018-05-16T11:07:04.104Z,72.77
2018-05-16T11:08:04.061Z,73.67
2018-05-16T11:09:04.014Z,73.32
2018-05-16T11:10:03.971Z,72.94
2018-05-16T11:11:04.296Z,71.01
2018-05-16T11:12:03.919Z,70.47
2018-05-16T11:13:03.844Z,67.77
2018-05-16T11:14:03.800Z,68.87
2018-05-16T11:15:03.759Z,68.68
2018-05-16T11:16:03.729Z,68.61
2018-05-16T11:17:03.704Z,68.90
2018-05-16T11:18:03.641Z,67.55
2018-05-16T11:19:03.593Z,67.74
2018-05-16T11:20:03.557Z,65.85
2018-05-16T11:21:03.506Z,66.97
2018-05-16T11:22:03.495Z,65.81
2018-05-16T11:23:03.427Z,66.39
2018-05-16T11:24:03.412Z,67.42
2018-05-16T11:25:03.343Z,65.40
2018-05-16T11:26:03.315Z,64.82
2018-05-16T11:27:03.295Z,65.69
2018-05-16T11:28:03.218Z,66.04
2018-05-16T11:29:03.171Z,66.24
2018-05-16T11:30:03.135Z,67.07
2018-05-16T11:31:03.114Z,66.49
2018-05-16T11:32:03.082Z,66.30
2018-05-16T11:33:03.016Z,66.65
2018-05-16T11:34:02.961Z,67.22
2018-05-16T11:35:02.935Z,67.51
2018-05-16T11:36:02.913Z,67.90
2018-05-16T11:37:02.844Z,67.80
2018-05-16T11:38:02.828Z,67.65
2018-05-16T11:39:02.754Z,68.03
2018-05-16T11:40:02.713Z,68.70
2018-05-16T11:41:02.704Z,68.70
2018-05-16T11:42:02.629Z,67.83
2018-05-16T11:43:02.604Z,68.35
2018-05-16T11:44:02.547Z,67.97
2018-05-16T11:45:02.508Z,67.49
2018-05-16T11:46:02.500Z,67.74
2018-05-16T11:47:02.422Z,67.35
2018-05-16T11:48:02.380Z,66.10
2018-05-16T11:49:02.335Z,67.35
2018-05-16T11:50:02.309Z,66.78
2018-05-16T11:51:02.293Z,66.10
2018-05-16T11:52:02.217Z,65.97
2018-05-16T11:53:02.207Z,65.78
2018-05-16T11:54:02.174Z,67.42
2018-05-16T11:55:02.083Z,67.90
2018-05-16T11:56:02.044Z,67.74
2018-05-16T11:57:02.036Z,67.93
2018-05-16T11:58:02.008Z,67.45
2018-05-16T11:59:01.918Z,67.93
2018-05-16T12:00:01.881Z,68.13
2018-05-16T12:01:01.844Z,67.19
2018-05-16T12:02:01.797Z,65.37
2018-05-16T12:03:01.787Z,65.27
2018-05-16T12:04:01.719Z,65.17
2018-05-16T12:05:01.669Z,64.79
2018-05-16T12:06:01.628Z,65.20
2018-05-16T12:07:01.617Z,64.69
2018-05-16T12:08:01.581Z,63.92
2018-05-16T12:09:01.520Z,64.21
2018-05-16T12:10:01.492Z,64.69
2018-05-16T12:11:01.450Z,65.08
2018-05-16T12:12:01.379Z,64.89
2018-05-16T12:13:01.332Z,64.50
2018-05-16T12:14:01.314Z,64.69
2018-05-16T12:15:01.361Z,64.89
2018-05-16T12:16:01.210Z,64.69
2018-05-16T12:17:01.174Z,64.98
2018-05-16T12:18:01.163Z,64.40
2018-05-16T12:19:01.082Z,63.73
2018-05-16T12:20:01.039Z,63.73
2018-05-16T12:21:01.045Z,63.64
2018-05-16T12:22:00.955Z,64.21
2018-05-16T12:23:00.920Z,65.46
2018-05-16T12:24:00.872Z,66.24
2018-05-16T12:25:00.834Z,65.75
2018-05-16T12:26:00.823Z,67.00
2018-05-16T12:27:00.788Z,66.71
2018-05-16T12:28:00.722Z,64.66
2018-05-16T12:29:00.784Z,66.10
2018-05-16T12:30:00.632Z,66.30
2018-05-16T12:31:00.590Z,66.30
2018-05-16T12:32:00.577Z,66.10
2018-05-16T12:33:00.502Z,65.63
2018-05-16T12:34:00.457Z,66.01
2018-05-16T12:35:00.415Z,66.07
2018-05-16T12:36:00.405Z,66.07
2018-05-16T12:37:00.373Z,66.94
2018-05-16T12:38:00.292Z,67.65
2018-05-16T12:39:00.249Z,67.16
2018-05-16T12:40:00.217Z,66.78
2018-05-16T12:41:00.203Z,65.72
2018-05-16T12:42:00.126Z,66.10
2018-05-16T12:43:00.127Z,65.72
2018-05-16T12:44:00.042Z,65.63
2018-05-16T12:45:00.002Z,66.01
2018-05-16T12:45:59.965Z,64.86
2018-05-16T12:46:59.950Z,65.05
2018-05-16T12:47:59.926Z,64.95
2018-05-16T12:48:59.835Z,65.53
2018-05-16T12:49:59.789Z,66.10
2018-05-16T12:50:59.749Z,66.30
2018-05-16T12:51:59.709Z,66.49